sensor_id;sensor_type;location;lat;lon;timestamp;pressure;altitude;pressure_sealevel;temperature;humidity
34506;BME280;20748;42.632;23.198;2023-02-16T00:00:38;93128.75;;;-1.49;84.92
34506;BME280;20748;42.632;23.198;2023-02-16T00:03:13;93130.56;;;-1.49;85.28
34506;BME280;20748;42.632;23.198;2023-02-16T00:05:47;93130.16;;;-1.53;85.12
34506;BME280;20748;42.632;23.198;2023-02-16T00:08:20;93125.41;;;-1.56;85.34
34506;BME280;20748;42.632;23.198;2023-02-16T00:10:52;93126.59;;;-1.58;85.13
34506;BME280;20748;42.632;23.198;2023-02-16T00:13:42;93125.22;;;-1.61;85.44
34506;BME280;20748;42.632;23.198;2023-02-16T00:16:17;93130.31;;;-1.61;85.41
34506;BME280;20748;42.632;23.198;2023-02-16T00:18:50;93119.88;;;-1.66;85.49
34506;BME280;20748;42.632;23.198;2023-02-16T00:21:23;93116.94;;;-1.77;86.17
34506;BME280;20748;42.632;23.198;2023-02-16T00:23:56;93122.03;;;-1.70;86.18
34506;BME280;20748;42.632;23.198;2023-02-16T00:26:30;93121.06;;;-1.69;86.03
34506;BME280;20748;42.632;23.198;2023-02-16T00:29:05;93113.19;;;-1.67;86.40
34506;BME280;20748;42.632;23.198;2023-02-16T00:31:38;93111.00;;;-1.77;86.31
34506;BME280;20748;42.632;23.198;2023-02-16T00:34:35;93112.59;;;-1.76;86.40
34506;BME280;20748;42.632;23.198;2023-02-16T00:37:09;93115.34;;;-1.78;86.38
34506;BME280;20748;42.632;23.198;2023-02-16T00:39:43;93114.13;;;-1.89;87.13
34506;BME280;20748;42.632;23.198;2023-02-16T00:42:18;93110.59;;;-1.87;87.40
34506;BME280;20748;42.632;23.198;2023-02-16T00:44:53;93110.41;;;-1.86;87.08
34506;BME280;20748;42.632;23.198;2023-02-16T00:47:29;93111.19;;;-1.92;87.22
34506;BME280;20748;42.632;23.198;2023-02-16T00:50:09;93112.94;;;-1.93;87.25
34506;BME280;20748;42.632;23.198;2023-02-16T00:52:46;93116.09;;;-1.91;87.28
34506;BME280;20748;42.632;23.198;2023-02-16T00:55:21;93111.97;;;-1.92;87.41
34506;BME280;20748;42.632;23.198;2023-02-16T00:57:56;93106.63;;;-2.04;87.34
34506;BME280;20748;42.632;23.198;2023-02-16T01:00:34;93116.66;;;-2.02;87.12
34506;BME280;20748;42.632;23.198;2023-02-16T01:03:12;93113.31;;;-2.03;86.65
34506;BME280;20748;42.632;23.198;2023-02-16T01:05:45;93109.75;;;-2.08;87.26
34506;BME280;20748;42.632;23.198;2023-02-16T01:08:19;93114.25;;;-2.10;87.07
34506;BME280;20748;42.632;23.198;2023-02-16T01:11:10;93114.25;;;-2.10;87.07
34506;BME280;20748;42.632;23.198;2023-02-16T01:13:46;93110.13;;;-2.18;88.09
34506;BME280;20748;42.632;23.198;2023-02-16T01:16:22;93104.97;;;-2.25;88.71
34506;BME280;20748;42.632;23.198;2023-02-16T01:18:54;93112.47;;;-2.17;89.10
34506;BME280;20748;42.632;23.198;2023-02-16T01:21:27;93103.41;;;-2.19;89.39
34506;BME280;20748;42.632;23.198;2023-02-16T01:23:59;93102.63;;;-2.20;89.64
34506;BME280;20748;42.632;23.198;2023-02-16T01:26:37;93096.19;;;-2.16;88.28
34506;BME280;20748;42.632;23.198;2023-02-16T01:29:12;93098.69;;;-2.22;88.16
34506;BME280;20748;42.632;23.198;2023-02-16T01:31:46;93092.13;;;-2.45;88.60
34506;BME280;20748;42.632;23.198;2023-02-16T01:34:19;93088.00;;;-2.46;89.33
34506;BME280;20748;42.632;23.198;2023-02-16T01:36:51;93080.91;;;-2.51;89.61
34506;BME280;20748;42.632;23.198;2023-02-16T01:39:24;93083.25;;;-2.56;90.55
34506;BME280;20748;42.632;23.198;2023-02-16T01:42:07;93081.28;;;-2.54;91.10
34506;BME280;20748;42.632;23.198;2023-02-16T01:44:47;93079.53;;;-2.47;91.43
34506;BME280;20748;42.632;23.198;2023-02-16T01:47:33;93077.69;;;-2.66;91.77
34506;BME280;20748;42.632;23.198;2023-02-16T01:50:15;93058.56;;;-2.77;91.97
34506;BME280;20748;42.632;23.198;2023-02-16T01:52:52;93072.63;;;-2.60;91.48
34506;BME280;20748;42.632;23.198;2023-02-16T01:55:30;93072.41;;;-2.58;91.58
34506;BME280;20748;42.632;23.198;2023-02-16T01:58:06;93069.66;;;-2.57;91.84
34506;BME280;20748;42.632;23.198;2023-02-16T02:03:54;93073.38;;;-2.59;91.86
34506;BME280;20748;42.632;23.198;2023-02-16T02:06:45;93067.09;;;-2.57;91.52
34506;BME280;20748;42.632;23.198;2023-02-16T02:09:23;93072.41;;;-2.58;91.67
34506;BME280;20748;42.632;23.198;2023-02-16T02:12:04;93067.91;;;-2.56;91.36
34506;BME280;20748;42.632;23.198;2023-02-16T02:14:39;93066.50;;;-2.59;90.94
34506;BME280;20748;42.632;23.198;2023-02-16T02:17:15;93061.78;;;-2.62;90.98
34506;BME280;20748;42.632;23.198;2023-02-16T02:19:54;93075.53;;;-2.63;90.81
34506;BME280;20748;42.632;23.198;2023-02-16T02:29:26;93057.16;;;-2.87;91.93
34506;BME280;20748;42.632;23.198;2023-02-16T02:32:07;93056.91;;;-2.92;92.28
34506;BME280;20748;42.632;23.198;2023-02-16T02:34:58;93055.34;;;-2.93;93.67
34506;BME280;20748;42.632;23.198;2023-02-16T02:37:40;93051.03;;;-2.92;95.41
34506;BME280;20748;42.632;23.198;2023-02-16T02:40:25;93055.59;;;-2.81;95.31
34506;BME280;20748;42.632;23.198;2023-02-16T02:43:07;93055.78;;;-2.83;95.55
34506;BME280;20748;42.632;23.198;2023-02-16T02:45:46;93051.09;;;-2.79;94.99
34506;BME280;20748;42.632;23.198;2023-02-16T02:48:21;93047.91;;;-2.81;94.05
34506;BME280;20748;42.632;23.198;2023-02-16T02:50:56;93061.44;;;-2.87;94.64
34506;BME280;20748;42.632;23.198;2023-02-16T02:53:51;93059.44;;;-2.99;94.72
34506;BME280;20748;42.632;23.198;2023-02-16T02:56:49;93059.25;;;-2.97;94.93
34506;BME280;20748;42.632;23.198;2023-02-16T02:59:51;93058.69;;;-2.92;95.25
34506;BME280;20748;42.632;23.198;2023-02-16T03:02:46;93064.56;;;-2.92;94.22
34506;BME280;20748;42.632;23.198;2023-02-16T03:05:22;93059.28;;;-2.90;94.03
34506;BME280;20748;42.632;23.198;2023-02-16T03:08:02;93064.56;;;-2.92;93.82
34506;BME280;20748;42.632;23.198;2023-02-16T03:10:47;93063.56;;;-2.98;94.16
34506;BME280;20748;42.632;23.198;2023-02-16T03:13:41;93068.88;;;-2.99;94.69
34506;BME280;20748;42.632;23.198;2023-02-16T03:16:19;93063.75;;;-2.99;94.49
34506;BME280;20748;42.632;23.198;2023-02-16T03:18:54;93062.31;;;-3.08;95.08
34506;BME280;20748;42.632;23.198;2023-02-16T03:21:45;93063.53;;;-3.04;94.05
34506;BME280;20748;42.632;23.198;2023-02-16T03:24:36;93061.78;;;-3.04;94.65
34506;BME280;20748;42.632;23.198;2023-02-16T03:27:30;93072.41;;;-3.00;94.58
34506;BME280;20748;42.632;23.198;2023-02-16T03:30:23;93052.94;;;-3.01;94.43
34506;BME280;20748;42.632;23.198;2023-02-16T03:32:57;93060.38;;;-3.06;94.80
34506;BME280;20748;42.632;23.198;2023-02-16T03:35:30;93056.84;;;-3.05;94.96
34506;BME280;20748;42.632;23.198;2023-02-16T03:38:03;93050.59;;;-3.03;95.00
34506;BME280;20748;42.632;23.198;2023-02-16T03:40:37;93055.88;;;-3.04;95.44
34506;BME280;20748;42.632;23.198;2023-02-16T03:43:11;93052.72;;;-3.06;96.54
34506;BME280;20748;42.632;23.198;2023-02-16T03:45:44;93052.50;;;-3.05;97.07
34506;BME280;20748;42.632;23.198;2023-02-16T03:48:17;93050.94;;;-3.06;97.19
34506;BME280;20748;42.632;23.198;2023-02-16T03:50:50;93050.41;;;-3.01;96.89
34506;BME280;20748;42.632;23.198;2023-02-16T03:53:22;93044.31;;;-3.00;96.26
34506;BME280;20748;42.632;23.198;2023-02-16T03:55:55;93042.28;;;-3.12;96.15
34506;BME280;20748;42.632;23.198;2023-02-16T03:58:27;93047.81;;;-3.08;96.30
34506;BME280;20748;42.632;23.198;2023-02-16T04:01:00;93045.81;;;-3.13;96.91
34506;BME280;20748;42.632;23.198;2023-02-16T04:03:32;93038.56;;;-3.09;97.03
34506;BME280;20748;42.632;23.198;2023-02-16T04:06:06;93034.44;;;-3.10;97.18
34506;BME280;20748;42.632;23.198;2023-02-16T04:08:39;93034.22;;;-3.08;97.54
34506;BME280;20748;42.632;23.198;2023-02-16T04:11:11;93024.63;;;-3.06;96.51
34506;BME280;20748;42.632;23.198;2023-02-16T04:14:01;93021.69;;;-3.10;95.62
34506;BME280;20748;42.632;23.198;2023-02-16T04:16:34;93033.41;;;-3.16;95.53
34506;BME280;20748;42.632;23.198;2023-02-16T04:19:06;93024.31;;;-3.25;96.38
34506;BME280;20748;42.632;23.198;2023-02-16T04:21:39;93028.19;;;-3.36;96.65
34506;BME280;20748;42.632;23.198;2023-02-16T04:24:13;93030.72;;;-3.36;97.37
34506;BME280;20748;42.632;23.198;2023-02-16T04:26:46;93020.53;;;-3.36;98.19
34506;BME280;20748;42.632;23.198;2023-02-16T04:29:20;93022.09;;;-3.35;98.84
34506;BME280;20748;42.632;23.198;2023-02-16T04:31:52;93020.34;;;-3.34;98.99
34506;BME280;20748;42.632;23.198;2023-02-16T04:34:25;93018.38;;;-3.32;98.97
34506;BME280;20748;42.632;23.198;2023-02-16T04:36:58;93020.94;;;-3.32;99.12
34506;BME280;20748;42.632;23.198;2023-02-16T04:39:30;93018.03;;;-3.29;99.07
34506;BME280;20748;42.632;23.198;2023-02-16T04:42:03;93019.59;;;-3.28;99.44
34506;BME280;20748;42.632;23.198;2023-02-16T04:44:36;93024.25;;;-3.39;99.83
34506;BME280;20748;42.632;23.198;2023-02-16T04:47:08;93024.84;;;-3.37;100.00
34506;BME280;20748;42.632;23.198;2023-02-16T04:49:40;93029.22;;;-3.30;100.00
34506;BME280;20748;42.632;23.198;2023-02-16T04:52:13;93028.97;;;-3.35;99.83
34506;BME280;20748;42.632;23.198;2023-02-16T04:54:46;93030.72;;;-3.36;100.00
34506;BME280;20748;42.632;23.198;2023-02-16T04:57:18;93034.09;;;-3.35;100.00
34506;BME280;20748;42.632;23.198;2023-02-16T04:59:53;93025.88;;;-3.31;100.00
34506;BME280;20748;42.632;23.198;2023-02-16T05:02:26;93039.47;;;-3.52;100.00
34506;BME280;20748;42.632;23.198;2023-02-16T05:04:58;93037.75;;;-3.45;100.00
34506;BME280;20748;42.632;23.198;2023-02-16T05:07:31;93034.63;;;-3.40;100.00
34506;BME280;20748;42.632;23.198;2023-02-16T05:10:05;93040.16;;;-3.37;100.00
34506;BME280;20748;42.632;23.198;2023-02-16T05:12:37;93035.00;;;-3.43;100.00
34506;BME280;20748;42.632;23.198;2023-02-16T05:15:28;93043.69;;;-3.38;100.00
34506;BME280;20748;42.632;23.198;2023-02-16T05:18:01;93038.56;;;-3.38;100.00
34506;BME280;20748;42.632;23.198;2023-02-16T05:20:34;93050.16;;;-3.35;100.00
34506;BME280;20748;42.632;23.198;2023-02-16T05:23:37;93044.84;;;-3.40;100.00
34506;BME280;20748;42.632;23.198;2023-02-16T05:26:10;93051.53;;;-3.39;100.00
34506;BME280;20748;42.632;23.198;2023-02-16T05:28:42;93051.31;;;-3.44;100.00
34506;BME280;20748;42.632;23.198;2023-02-16T05:31:14;93054.28;;;-3.41;100.00
34506;BME280;20748;42.632;23.198;2023-02-16T05:33:47;93061.94;;;-3.41;100.00
34506;BME280;20748;42.632;23.198;2023-02-16T05:36:20;93056.44;;;-3.38;100.00
34506;BME280;20748;42.632;23.198;2023-02-16T05:38:53;93058.03;;;-3.37;100.00
34506;BME280;20748;42.632;23.198;2023-02-16T05:41:25;93061.53;;;-3.38;100.00
34506;BME280;20748;42.632;23.198;2023-02-16T05:44:00;93060.78;;;-3.31;100.00
34506;BME280;20748;42.632;23.198;2023-02-16T05:46:35;93065.72;;;-3.30;100.00
34506;BME280;20748;42.632;23.198;2023-02-16T05:49:08;93066.69;;;-3.31;100.00
34506;BME280;20748;42.632;23.198;2023-02-16T05:51:41;93063.97;;;-3.29;100.00
34506;BME280;20748;42.632;23.198;2023-02-16T05:54:14;93061.41;;;-3.29;100.00
34506;BME280;20748;42.632;23.198;2023-02-16T05:56:50;93063.56;;;-3.33;100.00
34506;BME280;20748;42.632;23.198;2023-02-16T05:59:22;93070.22;;;-3.32;100.00
34506;BME280;20748;42.632;23.198;2023-02-16T06:01:55;93070.47;;;-3.27;100.00
34506;BME280;20748;42.632;23.198;2023-02-16T06:04:27;93082.19;;;-3.32;100.00
34506;BME280;20748;42.632;23.198;2023-02-16T06:07:01;93078.81;;;-3.40;100.00
34506;BME280;20748;42.632;23.198;2023-02-16T06:09:34;93082.75;;;-3.37;100.00
34506;BME280;20748;42.632;23.198;2023-02-16T06:12:06;93086.88;;;-3.36;100.00
34506;BME280;20748;42.632;23.198;2023-02-16T06:14:39;93093.03;;;-3.30;100.00
34506;BME280;20748;42.632;23.198;2023-02-16T06:17:11;93096.75;;;-3.33;100.00
34506;BME280;20748;42.632;23.198;2023-02-16T06:19:44;93090.09;;;-3.27;100.00
34506;BME280;20748;42.632;23.198;2023-02-16T06:22:16;93102.63;;;-3.32;100.00
34506;BME280;20748;42.632;23.198;2023-02-16T06:24:49;93102.09;;;-3.28;100.00
34506;BME280;20748;42.632;23.198;2023-02-16T06:27:22;93099.09;;;-3.31;100.00
34506;BME280;20748;42.632;23.198;2023-02-16T06:29:55;93106.75;;;-3.31;100.00
34506;BME280;20748;42.632;23.198;2023-02-16T06:32:27;93095.34;;;-3.35;100.00
34506;BME280;20748;42.632;23.198;2023-02-16T06:35:00;93099.94;;;-3.24;100.00
34506;BME280;20748;42.632;23.198;2023-02-16T06:37:32;93101.94;;;-3.19;100.00
34506;BME280;20748;42.632;23.198;2023-02-16T06:40:07;93107.88;;;-3.12;100.00
34506;BME280;20748;42.632;23.198;2023-02-16T06:42:40;93103.19;;;-3.08;100.00
34506;BME280;20748;42.632;23.198;2023-02-16T06:45:13;93104.75;;;-3.07;100.00
34506;BME280;20748;42.632;23.198;2023-02-16T06:47:45;93102.16;;;-3.14;100.00
34506;BME280;20748;42.632;23.198;2023-02-16T06:50:18;93108.50;;;-3.03;100.00
34506;BME280;20748;42.632;23.198;2023-02-16T06:52:50;93111.13;;;-2.97;100.00
34506;BME280;20748;42.632;23.198;2023-02-16T06:55:23;93112.34;;;-2.92;100.00
34506;BME280;20748;42.632;23.198;2023-02-16T06:57:56;93108.81;;;-2.85;100.00
34506;BME280;20748;42.632;23.198;2023-02-16T07:00:28;93104.75;;;-2.79;100.00
34506;BME280;20748;42.632;23.198;2023-02-16T07:03:01;93113.44;;;-2.66;100.00
34506;BME280;20748;42.632;23.198;2023-02-16T07:05:34;93099.34;;;-2.62;100.00
34506;BME280;20748;42.632;23.198;2023-02-16T07:08:07;93094.41;;;-2.64;100.00
34506;BME280;20748;42.632;23.198;2023-02-16T07:10:42;93091.66;;;-2.62;100.00
34506;BME280;20748;42.632;23.198;2023-02-16T07:13:21;93085.25;;;-2.45;100.00
34506;BME280;20748;42.632;23.198;2023-02-16T07:15:54;93080.75;;;-2.36;100.00
34506;BME280;20748;42.632;23.198;2023-02-16T07:18:26;93080.41;;;-2.26;100.00
34506;BME280;20748;42.632;23.198;2023-02-16T07:20:59;93076.66;;;-2.23;100.00
34506;BME280;20748;42.632;23.198;2023-02-16T07:23:31;93078.66;;;-2.05;100.00
34506;BME280;20748;42.632;23.198;2023-02-16T07:26:05;93069.66;;;-1.87;100.00
34506;BME280;20748;42.632;23.198;2023-02-16T07:28:37;93069.09;;;-1.76;100.00
34506;BME280;20748;42.632;23.198;2023-02-16T07:31:11;93068.31;;;-1.63;100.00
34506;BME280;20748;42.632;23.198;2023-02-16T07:33:44;93066.34;;;-1.54;100.00
34506;BME280;20748;42.632;23.198;2023-02-16T07:36:16;93073.84;;;-1.32;100.00
34506;BME280;20748;42.632;23.198;2023-02-16T07:38:49;93067.31;;;-1.22;100.00
34506;BME280;20748;42.632;23.198;2023-02-16T07:41:23;93059.44;;;-1.06;100.00
34506;BME280;20748;42.632;23.198;2023-02-16T07:43:55;93065.69;;;-0.82;100.00
34506;BME280;20748;42.632;23.198;2023-02-16T07:46:28;93061.09;;;-0.60;100.00
34506;BME280;20748;42.632;23.198;2023-02-16T07:49:03;93066.53;;;-0.43;100.00
34506;BME280;20748;42.632;23.198;2023-02-16T07:51:36;93070.66;;;-0.28;100.00
34506;BME280;20748;42.632;23.198;2023-02-16T07:54:09;93073.31;;;-0.09;100.00
34506;BME280;20748;42.632;23.198;2023-02-16T07:56:42;93070.00;;;0.16;97.80
34506;BME280;20748;42.632;23.198;2023-02-16T07:59:15;93072.88;;;0.33;97.60
34506;BME280;20748;42.632;23.198;2023-02-16T08:01:47;93068.59;;;0.52;97.55
34506;BME280;20748;42.632;23.198;2023-02-16T08:04:20;93080.28;;;0.73;95.59
34506;BME280;20748;42.632;23.198;2023-02-16T08:06:52;93076.97;;;0.91;95.26
34506;BME280;20748;42.632;23.198;2023-02-16T08:09:25;93083.94;;;1.10;94.80
34506;BME280;20748;42.632;23.198;2023-02-16T08:11:58;93079.38;;;1.30;92.59
34506;BME280;20748;42.632;23.198;2023-02-16T08:14:30;93092.47;;;1.47;87.75
34506;BME280;20748;42.632;23.198;2023-02-16T08:17:04;93084.41;;;1.63;83.95
34506;BME280;20748;42.632;23.198;2023-02-16T08:19:37;93093.53;;;1.77;82.87
34506;BME280;20748;42.632;23.198;2023-02-16T08:22:10;93086.50;;;1.84;81.43
34506;BME280;20748;42.632;23.198;2023-02-16T08:24:43;93088.78;;;2.11;80.79
34506;BME280;20748;42.632;23.198;2023-02-16T08:27:16;93094.66;;;2.31;79.42
34506;BME280;20748;42.632;23.198;2023-02-16T08:29:48;93096.25;;;2.44;76.52
34506;BME280;20748;42.632;23.198;2023-02-16T08:32:21;93096.72;;;2.52;75.50
34506;BME280;20748;42.632;23.198;2023-02-16T08:34:53;93102.00;;;2.58;74.49
34506;BME280;20748;42.632;23.198;2023-02-16T08:37:27;93099.00;;;2.73;74.98
34506;BME280;20748;42.632;23.198;2023-02-16T08:39:59;93103.38;;;2.84;74.20
34506;BME280;20748;42.632;23.198;2023-02-16T08:42:34;93107.09;;;3.00;74.45
34506;BME280;20748;42.632;23.198;2023-02-16T08:45:08;93097.13;;;3.16;75.15
34506;BME280;20748;42.632;23.198;2023-02-16T08:47:40;93096.69;;;3.31;74.16
34506;BME280;20748;42.632;23.198;2023-02-16T08:50:13;93094.78;;;3.50;73.98
34506;BME280;20748;42.632;23.198;2023-02-16T08:52:47;93091.03;;;3.70;72.99
34506;BME280;20748;42.632;23.198;2023-02-16T08:55:20;93096.81;;;3.89;71.55
34506;BME280;20748;42.632;23.198;2023-02-16T08:57:54;93095.22;;;4.00;70.14
34506;BME280;20748;42.632;23.198;2023-02-16T09:00:26;93093.03;;;4.09;69.81
34506;BME280;20748;42.632;23.198;2023-02-16T09:03:04;93097.81;;;4.29;68.39
34506;BME280;20748;42.632;23.198;2023-02-16T09:05:37;93096.97;;;4.40;65.76
34506;BME280;20748;42.632;23.198;2023-02-16T09:08:10;93092.94;;;4.62;65.58
34506;BME280;20748;42.632;23.198;2023-02-16T09:10:44;93095.47;;;4.74;66.78
34506;BME280;20748;42.632;23.198;2023-02-16T09:13:17;93096.00;;;4.93;66.43
34506;BME280;20748;42.632;23.198;2023-02-16T09:15:49;93090.81;;;5.10;66.08
34506;BME280;20748;42.632;23.198;2023-02-16T09:18:22;93090.03;;;5.27;67.18
34506;BME280;20748;42.632;23.198;2023-02-16T09:20:54;93087.41;;;5.44;66.31
34506;BME280;20748;42.632;23.198;2023-02-16T09:23:28;93086.28;;;5.57;65.23
34506;BME280;20748;42.632;23.198;2023-02-16T09:26:01;93089.56;;;5.52;62.64
34506;BME280;20748;42.632;23.198;2023-02-16T09:28:39;93084.47;;;5.57;61.01
34506;BME280;20748;42.632;23.198;2023-02-16T09:31:14;93089.34;;;5.54;62.00
34506;BME280;20748;42.632;23.198;2023-02-16T09:33:47;93083.81;;;5.67;61.50
34506;BME280;20748;42.632;23.198;2023-02-16T09:36:20;93073.94;;;5.64;60.87
34506;BME280;20748;42.632;23.198;2023-02-16T09:38:54;93081.41;;;5.83;60.20
34506;BME280;20748;42.632;23.198;2023-02-16T09:41:33;93078.88;;;5.88;61.69
34506;BME280;20748;42.632;23.198;2023-02-16T09:44:18;93071.31;;;6.03;61.19
34506;BME280;20748;42.632;23.198;2023-02-16T09:47:17;93070.13;;;6.16;60.95
34506;BME280;20748;42.632;23.198;2023-02-16T09:49:51;93072.66;;;6.34;60.20
34506;BME280;20748;42.632;23.198;2023-02-16T09:52:34;93071.03;;;6.55;58.33
34506;BME280;20748;42.632;23.198;2023-02-16T09:55:09;93067.50;;;6.66;54.85
34506;BME280;20748;42.632;23.198;2023-02-16T09:57:54;93058.03;;;6.82;51.79
34506;BME280;20748;42.632;23.198;2023-02-16T10:00:42;93058.38;;;6.96;52.28
34506;BME280;20748;42.632;23.198;2023-02-16T10:03:32;93058.22;;;7.14;53.11
34506;BME280;20748;42.632;23.198;2023-02-16T10:06:25;93052.06;;;7.25;51.50
34506;BME280;20748;42.632;23.198;2023-02-16T10:09:02;93047.75;;;7.36;54.04
34506;BME280;20748;42.632;23.198;2023-02-16T10:11:39;93044.84;;;7.32;54.20
34506;BME280;20748;42.632;23.198;2023-02-16T10:14:23;93050.59;;;7.34;51.93
34506;BME280;20748;42.632;23.198;2023-02-16T10:17:05;93042.78;;;7.34;54.51
34506;BME280;20748;42.632;23.198;2023-02-16T10:19:44;93045.44;;;7.45;54.43
34506;BME280;20748;42.632;23.198;2023-02-16T10:22:27;93043.44;;;7.57;55.47
34506;BME280;20748;42.632;23.198;2023-02-16T10:25:07;93049.91;;;7.55;47.97
34506;BME280;20748;42.632;23.198;2023-02-16T10:27:42;93049.41;;;7.63;45.54
34506;BME280;20748;42.632;23.198;2023-02-16T10:30:17;93050.28;;;7.84;45.36
34506;BME280;20748;42.632;23.198;2023-02-16T10:32:55;93050.28;;;7.84;42.01
34506;BME280;20748;42.632;23.198;2023-02-16T10:35:31;93038.91;;;8.01;43.26
34506;BME280;20748;42.632;23.198;2023-02-16T10:38:13;93031.91;;;8.01;42.32
34506;BME280;20748;42.632;23.198;2023-02-16T10:40:54;93026.19;;;8.10;42.59
34506;BME280;20748;42.632;23.198;2023-02-16T10:43:40;93038.44;;;8.30;42.19
34506;BME280;20748;42.632;23.198;2023-02-16T10:46:19;93029.09;;;8.44;43.19
34506;BME280;20748;42.632;23.198;2023-02-16T10:48:54;93032.22;;;8.36;41.94
34506;BME280;20748;42.632;23.198;2023-02-16T10:51:30;93039.03;;;8.53;42.49
34506;BME280;20748;42.632;23.198;2023-02-16T10:54:06;93032.53;;;8.55;41.54
34506;BME280;20748;42.632;23.198;2023-02-16T10:56:47;93021.59;;;8.64;41.18
34506;BME280;20748;42.632;23.198;2023-02-16T10:59:22;93019.78;;;8.64;40.98
34506;BME280;20748;42.632;23.198;2023-02-16T11:01:57;93017.44;;;8.78;40.20
34506;BME280;20748;42.632;23.198;2023-02-16T11:04:34;93002.09;;;8.87;41.06
34506;BME280;20748;42.632;23.198;2023-02-16T11:07:09;93005.69;;;8.96;39.75
34506;BME280;20748;42.632;23.198;2023-02-16T11:09:43;93008.81;;;9.09;40.87
34506;BME280;20748;42.632;23.198;2023-02-16T11:12:25;92988.22;;;9.12;41.67
34506;BME280;20748;42.632;23.198;2023-02-16T11:15:01;93005.63;;;9.27;38.61
34506;BME280;20748;42.632;23.198;2023-02-16T11:17:47;93004.59;;;9.34;38.04
34506;BME280;20748;42.632;23.198;2023-02-16T11:20:27;92992.31;;;9.45;38.92
34506;BME280;20748;42.632;23.198;2023-02-16T11:23:13;92999.06;;;9.51;38.89
34506;BME280;20748;42.632;23.198;2023-02-16T11:25:54;92988.94;;;9.39;38.68
34506;BME280;20748;42.632;23.198;2023-02-16T11:28:29;92994.44;;;9.32;39.65
34506;BME280;20748;42.632;23.198;2023-02-16T11:31:11;92990.72;;;9.54;38.34
34506;BME280;20748;42.632;23.198;2023-02-16T11:33:55;92984.16;;;9.62;38.81
34506;BME280;20748;42.632;23.198;2023-02-16T11:36:32;92983.13;;;9.63;38.04
34506;BME280;20748;42.632;23.198;2023-02-16T11:39:14;92986.56;;;9.48;37.22
34506;BME280;20748;42.632;23.198;2023-02-16T11:41:50;92983.09;;;9.68;38.22
34506;BME280;20748;42.632;23.198;2023-02-16T11:44:26;92978.31;;;9.86;38.60
34506;BME280;20748;42.632;23.198;2023-02-16T11:47:02;92981.91;;;10.00;38.20
34506;BME280;20748;42.632;23.198;2023-02-16T11:49:38;92979.75;;;10.13;37.69
34506;BME280;20748;42.632;23.198;2023-02-16T11:52:24;92982.31;;;10.23;38.19
34506;BME280;20748;42.632;23.198;2023-02-16T11:55:00;92971.31;;;10.26;36.93
34506;BME280;20748;42.632;23.198;2023-02-16T11:57:34;92968.25;;;10.19;35.53
34506;BME280;20748;42.632;23.198;2023-02-16T12:00:14;92964.16;;;10.42;37.42
34506;BME280;20748;42.632;23.198;2023-02-16T12:03:15;92972.03;;;10.37;37.87
34506;BME280;20748;42.632;23.198;2023-02-16T12:05:59;92966.09;;;10.26;35.55
34506;BME280;20748;42.632;23.198;2023-02-16T12:08:59;92969.69;;;10.36;36.64
34506;BME280;20748;42.632;23.198;2023-02-16T12:11:38;92968.88;;;10.45;36.82
34506;BME280;20748;42.632;23.198;2023-02-16T12:14:23;92957.66;;;10.40;37.21
34506;BME280;20748;42.632;23.198;2023-02-16T12:17:15;92963.66;;;10.40;36.53
34506;BME280;20748;42.632;23.198;2023-02-16T12:19:52;92954.56;;;10.32;36.62
34506;BME280;20748;42.632;23.198;2023-02-16T12:22:33;92958.44;;;10.40;37.21
34506;BME280;20748;42.632;23.198;2023-02-16T12:25:20;92950.75;;;10.59;36.15
34506;BME280;20748;42.632;23.198;2023-02-16T12:27:59;92943.84;;;10.74;37.65
34506;BME280;20748;42.632;23.198;2023-02-16T12:30:48;92941.81;;;10.95;37.75
34506;BME280;20748;42.632;23.198;2023-02-16T12:33:35;92938.53;;;10.84;35.85
34506;BME280;20748;42.632;23.198;2023-02-16T12:36:49;92939.00;;;10.86;36.65
34506;BME280;20748;42.632;23.198;2023-02-16T12:39:29;92937.06;;;10.73;35.57
34506;BME280;20748;42.632;23.198;2023-02-16T12:42:19;92933.06;;;10.81;34.97
34506;BME280;20748;42.632;23.198;2023-02-16T12:44:57;92926.84;;;10.77;35.80
34506;BME280;20748;42.632;23.198;2023-02-16T12:47:34;92925.88;;;10.97;36.67
34506;BME280;20748;42.632;23.198;2023-02-16T12:50:15;92922.25;;;11.17;35.74
34506;BME280;20748;42.632;23.198;2023-02-16T12:52:53;92924.25;;;11.25;34.66
34506;BME280;20748;42.632;23.198;2023-02-16T12:55:30;92922.91;;;11.28;34.78
34506;BME280;20748;42.632;23.198;2023-02-16T12:58:13;92920.38;;;11.23;35.30
34506;BME280;20748;42.632;23.198;2023-02-16T13:00:51;92916.19;;;11.22;33.90
34506;BME280;20748;42.632;23.198;2023-02-16T13:03:28;92916.16;;;11.03;33.66
34506;BME280;20748;42.632;23.198;2023-02-16T13:06:12;92909.19;;;11.17;33.32
34506;BME280;20748;42.632;23.198;2023-02-16T13:08:50;92915.22;;;11.18;34.10
34506;BME280;20748;42.632;23.198;2023-02-16T13:11:27;92917.78;;;11.23;33.96
34506;BME280;20748;42.632;23.198;2023-02-16T13:14:05;92914.19;;;11.38;34.27
34506;BME280;20748;42.632;23.198;2023-02-16T13:16:42;92909.38;;;11.26;33.38
34506;BME280;20748;42.632;23.198;2023-02-16T13:19:16;92915.69;;;11.20;34.01
34506;BME280;20748;42.632;23.198;2023-02-16T13:22:10;92904.47;;;11.19;34.17
34506;BME280;20748;42.632;23.198;2023-02-16T13:24:53;92899.69;;;11.02;34.13
34506;BME280;20748;42.632;23.198;2023-02-16T13:27:36;92897.91;;;11.22;34.69
34506;BME280;20748;42.632;23.198;2023-02-16T13:30:49;92892.28;;;11.34;34.06
34506;BME280;20748;42.632;23.198;2023-02-16T13:33:43;92891.81;;;11.51;34.72
34506;BME280;20748;42.632;23.198;2023-02-16T13:36:36;92885.66;;;11.61;33.29
34506;BME280;20748;42.632;23.198;2023-02-16T13:39:24;92891.47;;;11.58;33.12
34506;BME280;20748;42.632;23.198;2023-02-16T13:45:14;92883.56;;;11.63;33.21
34506;BME280;20748;42.632;23.198;2023-02-16T13:47:51;92877.34;;;11.59;32.21
34506;BME280;20748;42.632;23.198;2023-02-16T13:50:28;92885.59;;;11.66;34.44
34506;BME280;20748;42.632;23.198;2023-02-16T13:53:15;92880.03;;;11.53;33.44
34506;BME280;20748;42.632;23.198;2023-02-16T13:55:49;92881.66;;;11.68;33.77